Cathay, North Dakota
Current Conditions -  °F | °C
As of 9:15 AM on Monday 24 Nov 2014 (Local Time) from K46D Reporting Station
Clear Clear  
Wind Chill: -26°   Ceiling: Unl
Heat Index: -14°   Visibility: 10mi
Dew Point: -15°   Wind: 24mph
Humidity: 92%   Direction: 320°NW
Pressure: 29.81"   Gusts: 29mph
Location:  47.55°N, 99.41°W
Report Text: K46D 241515Z AUTO 32021G25KT 10SM CLR M14/M15 A2981 RMK AO2
Loading
Personal Weather Stations






























Interactive Weather Map New forecast layout! Learn more

10-Day Weather Forecast

Advertisements
Track Severe Weather on mobile